Terr del Toa, Puerto Rico
Current Conditions -  °F | °C
As of 10:56 PM on Thursday 18 Dec 2014 (Local Time) from TJSJ Reporting Station
Scattered Clouds Scattered Clouds  
Wind Chill: 77°   Ceiling: Unl
Heat Index: 78°   Visibility: 10mi
Dew Point: 72°   Wind: 7mph
Humidity: 84%   Direction: 80°E
Pressure: 30.01"   Gusts: NA
Location:  18.3893°N, 66.2481°W
Report Text: TJSJ 190256Z 08006KT 10SM FEW026 SCT065 25/22 A3001 RMK AO2 SLP160 60003 T02500222 51008
Loading
Personal Weather Stations






























Interactive Weather Map New forecast layout! Learn more

10-Day Weather Forecast

Advertisements
Track Severe Weather on mobile